createdAt,value
2023-01-19T00:01:11.246Z,2.3
2023-01-19T00:06:07.584Z,3.9
2023-01-19T00:11:03.794Z,2.6
2023-01-19T00:16:00.113Z,3.4
2023-01-19T00:20:56.301Z,4.5600000000000005
2023-01-19T00:25:52.540Z,4.5
2023-01-19T00:30:49.770Z,4.62
2023-01-19T00:35:51.061Z,3.56
2023-01-19T00:40:47.291Z,2.06
2023-01-19T00:45:44.619Z,3
2023-01-19T00:50:42.786Z,4.119999999999999
2023-01-19T00:55:40.053Z,1.6400000000000001
2023-01-19T01:00:36.289Z,3.1
2023-01-19T01:05:32.639Z,2.2199999999999998
2023-01-19T01:10:28.885Z,3.2
2023-01-19T01:15:25.069Z,4.960000000000001
2023-01-19T01:20:22.366Z,8.18
2023-01-19T01:25:20.667Z,5.74
2023-01-19T01:30:16.872Z,8.879999999999999
2023-01-19T01:35:13.133Z,12.000000000000002
2023-01-19T01:40:11.405Z,6.36
2023-01-19T01:45:20.592Z,13
2023-01-19T01:55:23.093Z,9.940000000000001
2023-01-19T02:00:20.364Z,6.6
2023-01-19T02:05:20.599Z,11.1
2023-01-19T02:10:17.878Z,5.7
2023-01-19T02:15:15.148Z,4.08
2023-01-19T02:20:13.402Z,3.7399999999999998
2023-01-19T02:25:09.674Z,2.88
2023-01-19T02:30:07.918Z,8.38
2023-01-19T02:35:04.123Z,5.72
2023-01-19T02:40:03.379Z,4.220000000000001
2023-01-19T02:45:01.696Z,3.7400000000000007
2023-01-19T02:50:00.954Z,6.14
2023-01-19T02:55:12.131Z,5.9
2023-01-19T03:00:20.346Z,6.580000000000001
2023-01-19T03:05:29.563Z,6.68
2023-01-19T03:10:33.844Z,3.2199999999999998
2023-01-19T03:15:38.115Z,3.22
2023-01-19T03:20:37.336Z,2.8200000000000003
2023-01-19T03:25:36.587Z,5.44
2023-01-19T03:30:38.904Z,3.6799999999999997
2023-01-19T03:35:39.095Z,3.9199999999999995
2023-01-19T03:40:36.358Z,5.08
2023-01-19T03:45:33.607Z,5.040000000000001
2023-01-19T03:50:30.848Z,7.880000000000001
2023-01-19T03:55:27.075Z,6.9
2023-01-19T04:00:23.358Z,21.759999999999998
2023-01-19T04:05:19.622Z,6.5200000000000005
2023-01-19T04:10:16.897Z,23.359999999999996
2023-01-19T04:15:13.158Z,6.260000000000001
2023-01-19T04:20:09.420Z,5.7
2023-01-19T04:25:06.659Z,4.720000000000001
2023-01-19T04:30:02.882Z,7.360000000000001
2023-01-19T04:34:59.135Z,8.48
2023-01-19T04:39:55.445Z,5.859999999999999
2023-01-19T04:44:51.725Z,7.24
2023-01-19T04:49:48.008Z,5.06
2023-01-19T04:54:44.241Z,5.54
2023-01-19T04:59:40.480Z,11.66
2023-01-19T05:04:36.764Z,12.52
2023-01-19T05:09:33.023Z,15.459999999999999
2023-01-19T05:14:29.238Z,15.52
2023-01-19T05:19:25.521Z,20.68
2023-01-19T05:24:20.758Z,12.14
2023-01-19T05:29:17.046Z,14.5
2023-01-19T05:34:13.306Z,19.52
2023-01-19T05:39:09.530Z,14.76
2023-01-19T05:44:05.814Z,22.040000000000003
2023-01-19T05:49:02.089Z,18.240000000000002
2023-01-19T05:53:58.348Z,13.7
2023-01-19T05:58:54.607Z,10.8
2023-01-19T06:03:50.844Z,19.080000000000002
2023-01-19T06:08:47.117Z,17.8
2023-01-19T06:13:43.411Z,14.440000000000001
2023-01-19T06:18:39.598Z,21.68
2023-01-19T06:23:35.877Z,24.3
2023-01-19T06:28:32.169Z,55.080000000000005
2023-01-19T06:33:28.400Z,152.62
2023-01-19T06:38:23.686Z,47.1
2023-01-19T06:43:19.908Z,54.879999999999995
2023-01-19T06:48:18.222Z,58.339999999999996
2023-01-19T06:53:14.454Z,107.24000000000001
2023-01-19T06:58:10.689Z,72.47999999999999
2023-01-19T07:03:07.058Z,34.96
2023-01-19T07:08:03.263Z,36.64
2023-01-19T07:12:59.962Z,49.419999999999995
2023-01-19T07:17:57.720Z,32.260000000000005
2023-01-19T07:22:56.000Z,24.119999999999997
2023-01-19T07:27:52.259Z,37.21999999999999
2023-01-19T07:32:48.544Z,20.119999999999997
2023-01-19T07:37:44.766Z,20.6
2023-01-19T07:42:46.035Z,24.78
2023-01-19T07:52:47.547Z,29.919999999999998
2023-01-19T07:57:43.791Z,52.14000000000001
2023-01-19T08:02:41.034Z,17.1
2023-01-19T08:07:37.283Z,10.98
2023-01-19T08:12:33.556Z,14.059999999999999
2023-01-19T08:17:30.789Z,8.719999999999999
2023-01-19T08:22:27.065Z,52.14
2023-01-19T08:27:28.284Z,56.220000000000006
2023-01-19T08:32:24.640Z,23.3
2023-01-19T08:37:20.858Z,25.080000000000002
2023-01-19T08:41:48.126Z,24.84
2023-01-19T08:46:44.547Z,16.3
2023-01-19T08:51:40.699Z,13.98
2023-01-19T08:56:36.990Z,12.48
2023-01-19T09:01:33.324Z,13.88
2023-01-19T09:06:30.252Z,20.16
2023-01-19T09:11:26.723Z,16.96
2023-01-19T09:16:23.012Z,14.86
2023-01-19T09:21:20.260Z,23.080000000000002
2023-01-19T09:26:17.497Z,25.860000000000003
2023-01-19T09:31:13.970Z,32.72
2023-01-19T09:36:10.189Z,32.92
2023-01-19T09:41:13.251Z,30.439999999999998
2023-01-19T09:46:13.563Z,20.44
2023-01-19T09:51:21.739Z,15.440000000000001
2023-01-19T09:56:18.999Z,8.959999999999999
2023-01-19T10:01:23.298Z,25.12
2023-01-19T10:05:30.633Z,19.419999999999998
2023-01-19T10:10:34.891Z,18.88
2023-01-19T10:15:42.088Z,5.4799999999999995
2023-01-19T10:20:45.308Z,7.58
2023-01-19T10:25:47.751Z,9.599999999999998
2023-01-19T10:30:50.062Z,8.36
2023-01-19T10:35:47.114Z,7.5
2023-01-19T10:40:54.291Z,10.14
2023-01-19T10:45:51.680Z,7.0200000000000005
2023-01-19T10:51:02.301Z,19.46
2023-01-19T10:56:10.062Z,10.82
2023-01-19T11:01:13.374Z,16.64
2023-01-19T11:06:20.531Z,23.479999999999997
2023-01-19T11:11:22.916Z,41.16
2023-01-19T11:16:25.084Z,26.660000000000004
2023-01-19T11:21:25.832Z,9.18
2023-01-19T11:31:31.810Z,20.759999999999998
2023-01-19T11:36:35.968Z,34.300000000000004
2023-01-19T11:41:34.273Z,20.62
2023-01-19T11:46:33.591Z,15.059999999999999
2023-01-19T11:51:35.704Z,10.76
2023-01-19T11:56:34.950Z,16.66
2023-01-19T12:01:34.284Z,17.919999999999998
2023-01-19T12:06:33.479Z,14.12
2023-01-19T12:11:34.708Z,8.76
2023-01-19T12:16:33.107Z,19.28
2023-01-19T12:21:29.270Z,11.98
2023-01-19T12:26:34.480Z,14.739999999999998
2023-01-19T12:31:31.889Z,12.5
2023-01-19T12:36:35.964Z,7.68
2023-01-19T12:41:43.197Z,3.9599999999999995
2023-01-19T12:46:45.434Z,8.8
2023-01-19T12:51:48.207Z,9.1
2023-01-19T12:56:43.935Z,10.4
2023-01-19T13:01:52.315Z,13.040000000000001
2023-01-19T13:06:58.478Z,10.040000000000001
2023-01-19T13:12:04.670Z,6.2
2023-01-19T13:17:21.910Z,7.5600000000000005
2023-01-19T13:27:25.371Z,6.640000000000001
2023-01-19T13:32:21.672Z,28.560000000000002
2023-01-19T13:37:19.835Z,12.040000000000001
2023-01-19T13:42:18.141Z,15.88
2023-01-19T13:47:18.533Z,13
2023-01-19T13:52:15.633Z,15.580000000000002
2023-01-19T13:57:16.911Z,11.600000000000001
2023-01-19T14:02:13.413Z,20.86
2023-01-19T14:07:13.476Z,11.3
2023-01-19T14:12:11.638Z,15.959999999999999
2023-01-19T14:17:11.884Z,10.76
2023-01-19T14:22:10.308Z,18.72
2023-01-19T14:27:18.397Z,13.079999999999998
2023-01-19T14:32:16.632Z,20.419999999999998
2023-01-19T14:37:15.866Z,16.08
2023-01-19T14:42:17.603Z,14.319999999999999
2023-01-19T14:52:24.637Z,13.520000000000001
2023-01-19T14:57:19.864Z,16.979999999999997
2023-01-19T15:02:16.220Z,18.439999999999998
2023-01-19T15:07:16.381Z,21.880000000000003
2023-01-19T15:12:12.649Z,13.440000000000001
2023-01-19T15:17:13.906Z,16.080000000000002
2023-01-19T15:19:20.620Z,23.339999999999996
2023-01-19T15:24:18.013Z,31.080000000000002
2023-01-19T15:29:16.077Z,20.580000000000005
2023-01-19T15:34:12.354Z,17.46
2023-01-19T15:39:08.611Z,15
2023-01-19T15:44:04.856Z,16.160000000000004
2023-01-19T15:49:01.120Z,20.54
2023-01-19T15:53:57.396Z,23.840000000000003
2023-01-19T15:58:53.635Z,21.36
2023-01-19T16:03:49.916Z,20.2
2023-01-19T16:08:46.154Z,18.9
2023-01-19T16:13:44.405Z,19.68
2023-01-19T16:18:40.676Z,30.939999999999998
2023-01-19T16:23:36.943Z,15.060000000000002
2023-01-19T16:28:33.189Z,39.839999999999996
2023-01-19T16:33:29.449Z,17.32
2023-01-19T16:38:25.710Z,28.54
2023-01-19T16:43:21.981Z,25.02
2023-01-19T16:48:18.253Z,25.240000000000002
2023-01-19T16:53:14.476Z,21.8
2023-01-19T16:58:10.785Z,30.82
2023-01-19T17:03:07.100Z,33.779999999999994
2023-01-19T17:08:03.294Z,34.04
2023-01-19T17:12:59.572Z,41.1
2023-01-19T17:17:55.791Z,34.459999999999994
2023-01-19T17:22:52.106Z,42.52
2023-01-19T17:27:48.324Z,24.32
2023-01-19T17:32:44.597Z,26.74
2023-01-19T17:37:53.775Z,20.279999999999998
2023-01-19T17:42:50.057Z,20.160000000000004
2023-01-19T17:47:47.327Z,18.32
2023-01-19T17:52:51.744Z,19.6
2023-01-19T17:57:47.835Z,17.6
2023-01-19T18:02:53.079Z,21.32
2023-01-19T18:07:53.723Z,20.419999999999998
2023-01-19T18:12:58.581Z,23.660000000000004
2023-01-19T18:17:58.797Z,24.36
2023-01-19T18:23:00.452Z,18.759999999999998
2023-01-19T18:27:57.303Z,19.479999999999997
2023-01-19T18:33:02.977Z,21.279999999999998
2023-01-19T18:38:06.726Z,19.22
2023-01-19T18:43:08.028Z,13.4
2023-01-19T18:48:09.290Z,11.68
2023-01-19T18:53:05.525Z,13.98
2023-01-19T18:58:05.774Z,20.119999999999997
2023-01-19T19:03:06.029Z,15.1
2023-01-19T19:08:10.267Z,9.780000000000001
2023-01-19T19:13:11.543Z,16.6
2023-01-19T19:18:12.138Z,14.3
2023-01-19T19:23:08.029Z,23.380000000000003
2023-01-19T19:28:11.649Z,15.34
2023-01-19T19:33:11.538Z,9.84
2023-01-19T19:38:16.271Z,9.8
2023-01-19T19:43:17.429Z,11.540000000000001
2023-01-19T19:48:14.263Z,11.559999999999999
2023-01-19T19:53:23.504Z,14.7
2023-01-19T19:58:19.736Z,16.68
2023-01-19T20:03:16.045Z,29.22
2023-01-19T20:08:21.250Z,42.18
2023-01-19T20:13:22.512Z,20.48
2023-01-19T20:18:27.744Z,28.259999999999998
2023-01-19T20:23:33.968Z,20.54
2023-01-19T20:28:30.237Z,15.559999999999999
2023-01-19T20:33:39.508Z,25.9
2023-01-19T20:38:44.756Z,28.559999999999995
2023-01-19T20:43:49.673Z,22.340000000000003
2023-01-19T20:48:54.171Z,29.52
2023-01-19T20:54:00.402Z,21.3
2023-01-19T20:59:11.601Z,23.04
2023-01-19T21:04:12.908Z,28.639999999999997
2023-01-19T21:09:23.177Z,20.220000000000002
2023-01-19T21:14:24.438Z,23.139999999999997
2023-01-19T21:19:29.637Z,20.979999999999997
2023-01-19T21:24:27.840Z,42.2
2023-01-19T21:29:24.127Z,31.639999999999997
2023-01-19T21:34:25.082Z,27.339999999999996
2023-01-19T21:39:26.611Z,71.72
2023-01-19T21:44:27.861Z,44.84000000000001
2023-01-19T21:49:29.053Z,37.82
2023-01-19T21:54:30.369Z,35.14
2023-01-19T21:59:35.585Z,23.34
2023-01-19T22:04:45.301Z,17.92
2023-01-19T22:09:42.075Z,15.060000000000002
2023-01-19T22:19:48.507Z,15.459999999999999
2023-01-19T22:24:52.806Z,11.52
2023-01-19T22:29:57.030Z,12.820000000000002
2023-01-19T22:34:58.258Z,24.66
2023-01-19T22:40:03.494Z,32.559999999999995
2023-01-19T22:45:05.133Z,12.52
2023-01-19T22:50:06.517Z,10.3
2023-01-19T22:55:12.200Z,10.68
2023-01-19T23:00:20.490Z,11.68
2023-01-19T23:05:17.809Z,12.459999999999999
2023-01-19T23:10:23.944Z,11.180000000000001
2023-01-19T23:15:24.297Z,13.479999999999999
2023-01-19T23:20:21.469Z,12.120000000000001
2023-01-19T23:25:17.711Z,15.440000000000001
2023-01-19T23:30:17.972Z,15.080000000000002
2023-01-19T23:35:22.201Z,13.34
2023-01-19T23:40:30.904Z,13.039999999999997
2023-01-19T23:50:32.952Z,12.700000000000001
2023-01-19T23:55:41.849Z,13.5
